Xinzheng Airport
ZHCC : now visible

Airfield :











YOU CAN JOIN US ON...

 
LOGIN :

Register | Disclaimer

   EN    FR    IT 

 









Legend :    VFR   Marginal VFR   IFR   Intensive IFR   Very Intensive IFR
Visi :
Ceiling :
>= 8 km
>= 3000ft
5 to 8 km
1000 to 3000 ft
1500m to 5 km
500 to 1000 ft
800 to 1500m
200 to 500 ft
< 800m
< 200 ft
Symbols :   Thunderstorms  Fog  Heavy snow  Heavy precipitations  Wind > 20 kt






- Airport Elevation : 495 ft
- IATA code : CGO


ZHCC - Xinzheng

CURRENT METAR :
  • 112100Z 01002MPS 320V040 7000 NSC 02/M08 Q1028 NOSIG

EXPIRED METARs :
  • 112000Z 04003MPS 7000 NSC 03/M07 Q1028 NOSIG
  • 111900Z 02002MPS 7000 NSC 03/M07 Q1029 NOSIG

TAF TAF ZHCC
Valid from the 11 at 18:00 until the 12 at 18:00 UTC


111501Z 1118/1218 09003MPS 6000 NSC TX08/1207Z TN00/1122Z



MET'MAP, your aeronautical weather chart ! - Copyright ORBIFLY December 2007 - Disclaimer

ORBIFLY MET'MAP TEAM :

Programming & Development : Alexandra Zaïnal
Concept & original design : Baudouin d'Aumeries
Assistance for programming : Marc-Olivier Méhu
Technical & hardware support : Manuel Goepfert

Contact : metmap@orbifly.com




SOURCES & CREDITS :

   NOAA       Earth
Advisory